Shawanee, Tennessee
Current Conditions -  °F | °C
As of 5:15 PM on Wednesday 28 Jan 2015 (Local Time) from K1A6 Reporting Station
Clear Clear  
Wind Chill: 41°   Ceiling: Unl
Heat Index: 41°   Visibility: 10mi
Dew Point: 20°   Wind: 3mph
Humidity: 44%   Direction: 200°SSW
Pressure: 30.26"   Gusts: NA
Location:  36.58°N, 83.64°W
Report Text: K1A6 282215Z AUTO 20003KT 10SM CLR 05/M07 A3026 RMK AO2 T00481066
Loading
Personal Weather Stations






























Interactive Weather Map New forecast layout! Learn more

10-Day Weather Forecast

Advertisements
Track Severe Weather on mobile